sensor_id;sensor_type;location;lat;lon;timestamp;P1;durP1;ratioP1;P2;durP2;ratioP2
20908;SDS011;10614;53.198;6.570;2023-11-19T00:02:22;101.72;;;29.60;;
20908;SDS011;10614;53.198;6.570;2023-11-19T00:04:23;90.82;;;28.17;;
20908;SDS011;10614;53.198;6.570;2023-11-19T00:06:24;102.93;;;30.50;;
20908;SDS011;10614;53.198;6.570;2023-11-19T00:08:27;109.28;;;31.65;;
20908;SDS011;10614;53.198;6.570;2023-11-19T00:10:30;85.78;;;28.70;;
20908;SDS011;10614;53.198;6.570;2023-11-19T00:12:32;100.55;;;28.98;;
20908;SDS011;10614;53.198;6.570;2023-11-19T00:14:34;112.30;;;31.13;;
20908;SDS011;10614;53.198;6.570;2023-11-19T00:16:36;113.57;;;29.90;;
20908;SDS011;10614;53.198;6.570;2023-11-19T00:18:39;96.38;;;28.65;;
20908;SDS011;10614;53.198;6.570;2023-11-19T00:20:42;94.88;;;29.33;;
20908;SDS011;10614;53.198;6.570;2023-11-19T00:22:47;88.00;;;26.92;;
20908;SDS011;10614;53.198;6.570;2023-11-19T00:24:51;100.57;;;27.23;;
20908;SDS011;10614;53.198;6.570;2023-11-19T00:26:53;80.85;;;24.60;;
20908;SDS011;10614;53.198;6.570;2023-11-19T00:28:55;71.70;;;22.50;;
20908;SDS011;10614;53.198;6.570;2023-11-19T00:30:57;70.40;;;23.15;;
20908;SDS011;10614;53.198;6.570;2023-11-19T00:35:17;62.33;;;19.15;;
20908;SDS011;10614;53.198;6.570;2023-11-19T00:41:39;86.40;;;19.92;;
20908;SDS011;10614;53.198;6.570;2023-11-19T00:45:51;56.53;;;17.30;;
20908;SDS011;10614;53.198;6.570;2023-11-19T00:47:54;68.85;;;19.30;;
20908;SDS011;10614;53.198;6.570;2023-11-19T00:49:59;69.18;;;17.60;;
20908;SDS011;10614;53.198;6.570;2023-11-19T00:58:33;73.32;;;15.88;;
20908;SDS011;10614;53.198;6.570;2023-11-19T01:02:40;63.95;;;13.95;;
20908;SDS011;10614;53.198;6.570;2023-11-19T01:04:42;82.28;;;15.82;;
20908;SDS011;10614;53.198;6.570;2023-11-19T01:06:44;71.03;;;14.07;;
20908;SDS011;10614;53.198;6.570;2023-11-19T01:11:36;56.28;;;12.00;;
20908;SDS011;10614;53.198;6.570;2023-11-19T01:13:39;66.40;;;12.40;;
20908;SDS011;10614;53.198;6.570;2023-11-19T01:15:41;69.40;;;11.23;;
20908;SDS011;10614;53.198;6.570;2023-11-19T01:17:43;61.47;;;10.93;;
20908;SDS011;10614;53.198;6.570;2023-11-19T01:19:46;73.68;;;11.38;;
20908;SDS011;10614;53.198;6.570;2023-11-19T01:21:50;62.90;;;11.00;;
20908;SDS011;10614;53.198;6.570;2023-11-19T01:23:56;80.00;;;11.23;;
20908;SDS011;10614;53.198;6.570;2023-11-19T01:25:59;64.05;;;10.40;;
20908;SDS011;10614;53.198;6.570;2023-11-19T01:28:01;68.70;;;10.93;;
20908;SDS011;10614;53.198;6.570;2023-11-19T01:30:06;86.85;;;10.23;;
20908;SDS011;10614;53.198;6.570;2023-11-19T01:32:10;64.97;;;10.07;;
20908;SDS011;10614;53.198;6.570;2023-11-19T01:34:21;78.05;;;10.80;;
20908;SDS011;10614;53.198;6.570;2023-11-19T01:36:22;79.25;;;10.90;;
20908;SDS011;10614;53.198;6.570;2023-11-19T01:38:26;72.57;;;10.30;;
20908;SDS011;10614;53.198;6.570;2023-11-19T01:40:31;63.30;;;9.23;;
20908;SDS011;10614;53.198;6.570;2023-11-19T01:42:35;64.72;;;9.50;;
20908;SDS011;10614;53.198;6.570;2023-11-19T01:46:40;63.92;;;8.38;;
20908;SDS011;10614;53.198;6.570;2023-11-19T01:48:44;59.28;;;8.82;;
20908;SDS011;10614;53.198;6.570;2023-11-19T01:50:50;62.85;;;9.25;;
20908;SDS011;10614;53.198;6.570;2023-11-19T01:52:52;63.67;;;9.48;;
20908;SDS011;10614;53.198;6.570;2023-11-19T01:54:57;54.53;;;8.75;;
20908;SDS011;10614;53.198;6.570;2023-11-19T01:56:59;67.13;;;9.93;;
20908;SDS011;10614;53.198;6.570;2023-11-19T01:59:01;48.80;;;8.82;;
20908;SDS011;10614;53.198;6.570;2023-11-19T02:01:04;65.35;;;10.15;;
20908;SDS011;10614;53.198;6.570;2023-11-19T02:03:08;70.57;;;9.32;;
20908;SDS011;10614;53.198;6.570;2023-11-19T02:05:20;78.53;;;9.63;;
20908;SDS011;10614;53.198;6.570;2023-11-19T02:07:23;67.20;;;9.38;;
20908;SDS011;10614;53.198;6.570;2023-11-19T02:09:26;77.43;;;10.77;;
20908;SDS011;10614;53.198;6.570;2023-11-19T02:11:31;69.80;;;9.85;;
20908;SDS011;10614;53.198;6.570;2023-11-19T02:13:33;68.47;;;10.50;;
20908;SDS011;10614;53.198;6.570;2023-11-19T02:15:37;65.95;;;9.07;;
20908;SDS011;10614;53.198;6.570;2023-11-19T02:17:38;67.82;;;9.65;;
20908;SDS011;10614;53.198;6.570;2023-11-19T02:19:41;54.80;;;8.90;;
20908;SDS011;10614;53.198;6.570;2023-11-19T02:21:45;58.63;;;9.05;;
20908;SDS011;10614;53.198;6.570;2023-11-19T02:23:47;59.78;;;8.90;;
20908;SDS011;10614;53.198;6.570;2023-11-19T02:28:03;71.68;;;9.95;;
20908;SDS011;10614;53.198;6.570;2023-11-19T02:30:07;81.10;;;9.80;;
20908;SDS011;10614;53.198;6.570;2023-11-19T02:32:11;81.65;;;10.43;;
20908;SDS011;10614;53.198;6.570;2023-11-19T02:34:17;70.70;;;8.90;;
20908;SDS011;10614;53.198;6.570;2023-11-19T02:36:33;57.33;;;8.90;;
20908;SDS011;10614;53.198;6.570;2023-11-19T02:39:10;57.58;;;8.90;;
20908;SDS011;10614;53.198;6.570;2023-11-19T02:41:56;63.65;;;9.07;;
20908;SDS011;10614;53.198;6.570;2023-11-19T02:48:57;52.83;;;8.07;;
20908;SDS011;10614;53.198;6.570;2023-11-19T02:50:59;60.10;;;9.35;;
20908;SDS011;10614;53.198;6.570;2023-11-19T02:53:01;59.15;;;9.55;;
20908;SDS011;10614;53.198;6.570;2023-11-19T02:55:02;60.90;;;8.63;;
20908;SDS011;10614;53.198;6.570;2023-11-19T02:57:09;61.30;;;7.97;;
20908;SDS011;10614;53.198;6.570;2023-11-19T02:59:12;54.42;;;8.60;;
20908;SDS011;10614;53.198;6.570;2023-11-19T03:01:27;68.38;;;8.60;;
20908;SDS011;10614;53.198;6.570;2023-11-19T03:03:30;58.60;;;8.05;;
20908;SDS011;10614;53.198;6.570;2023-11-19T03:05:48;50.17;;;7.32;;
20908;SDS011;10614;53.198;6.570;2023-11-19T03:07:51;58.60;;;8.60;;
20908;SDS011;10614;53.198;6.570;2023-11-19T03:09:54;52.38;;;7.60;;
20908;SDS011;10614;53.198;6.570;2023-11-19T03:11:56;55.47;;;6.50;;
20908;SDS011;10614;53.198;6.570;2023-11-19T03:16:08;57.83;;;8.07;;
20908;SDS011;10614;53.198;6.570;2023-11-19T03:18:11;48.72;;;7.78;;
20908;SDS011;10614;53.198;6.570;2023-11-19T03:22:24;54.47;;;7.70;;
20908;SDS011;10614;53.198;6.570;2023-11-19T03:24:26;42.15;;;6.97;;
20908;SDS011;10614;53.198;6.570;2023-11-19T03:26:30;52.45;;;8.50;;
20908;SDS011;10614;53.198;6.570;2023-11-19T03:28:34;51.10;;;7.40;;
20908;SDS011;10614;53.198;6.570;2023-11-19T03:30:36;59.60;;;8.13;;
20908;SDS011;10614;53.198;6.570;2023-11-19T03:32:52;46.10;;;7.22;;
20908;SDS011;10614;53.198;6.570;2023-11-19T03:34:54;36.03;;;7.05;;
20908;SDS011;10614;53.198;6.570;2023-11-19T03:36:55;45.60;;;6.85;;
20908;SDS011;10614;53.198;6.570;2023-11-19T03:38:59;51.90;;;7.47;;
20908;SDS011;10614;53.198;6.570;2023-11-19T03:40:59;38.13;;;7.00;;
20908;SDS011;10614;53.198;6.570;2023-11-19T03:43:01;56.72;;;8.52;;
20908;SDS011;10614;53.198;6.570;2023-11-19T03:45:04;55.60;;;8.18;;
20908;SDS011;10614;53.198;6.570;2023-11-19T03:47:08;46.03;;;7.13;;
20908;SDS011;10614;53.198;6.570;2023-11-19T03:49:11;38.35;;;6.70;;
20908;SDS011;10614;53.198;6.570;2023-11-19T03:51:13;43.60;;;7.72;;
20908;SDS011;10614;53.198;6.570;2023-11-19T03:53:16;62.03;;;7.57;;
20908;SDS011;10614;53.198;6.570;2023-11-19T03:55:21;56.03;;;8.40;;
20908;SDS011;10614;53.198;6.570;2023-11-19T03:57:23;48.40;;;7.50;;
20908;SDS011;10614;53.198;6.570;2023-11-19T03:59:26;44.70;;;6.65;;
20908;SDS011;10614;53.198;6.570;2023-11-19T04:01:29;47.00;;;7.43;;
20908;SDS011;10614;53.198;6.570;2023-11-19T04:03:33;59.67;;;7.85;;
20908;SDS011;10614;53.198;6.570;2023-11-19T04:05:35;50.55;;;8.25;;
20908;SDS011;10614;53.198;6.570;2023-11-19T04:14:09;53.05;;;7.82;;
20908;SDS011;10614;53.198;6.570;2023-11-19T04:16:13;45.10;;;6.75;;
20908;SDS011;10614;53.198;6.570;2023-11-19T04:21:00;47.60;;;6.38;;
20908;SDS011;10614;53.198;6.570;2023-11-19T04:23:01;52.78;;;7.93;;
20908;SDS011;10614;53.198;6.570;2023-11-19T04:25:04;45.00;;;7.20;;
20908;SDS011;10614;53.198;6.570;2023-11-19T04:27:11;44.70;;;7.05;;
20908;SDS011;10614;53.198;6.570;2023-11-19T04:34:03;46.78;;;7.70;;
20908;SDS011;10614;53.198;6.570;2023-11-19T04:36:09;52.78;;;7.47;;
20908;SDS011;10614;53.198;6.570;2023-11-19T04:40:15;54.08;;;7.80;;
20908;SDS011;10614;53.198;6.570;2023-11-19T04:42:27;45.05;;;6.72;;
20908;SDS011;10614;53.198;6.570;2023-11-19T04:44:32;44.67;;;7.03;;
20908;SDS011;10614;53.198;6.570;2023-11-19T04:46:32;52.38;;;7.18;;
20908;SDS011;10614;53.198;6.570;2023-11-19T04:48:34;52.95;;;7.88;;
20908;SDS011;10614;53.198;6.570;2023-11-19T04:50:37;50.33;;;7.50;;
20908;SDS011;10614;53.198;6.570;2023-11-19T04:52:39;52.45;;;8.13;;
20908;SDS011;10614;53.198;6.570;2023-11-19T04:54:45;50.50;;;7.18;;
20908;SDS011;10614;53.198;6.570;2023-11-19T04:56:48;53.42;;;7.93;;
20908;SDS011;10614;53.198;6.570;2023-11-19T04:58:53;54.45;;;8.80;;
20908;SDS011;10614;53.198;6.570;2023-11-19T05:00:55;48.92;;;7.47;;
20908;SDS011;10614;53.198;6.570;2023-11-19T05:02:56;49.08;;;7.80;;
20908;SDS011;10614;53.198;6.570;2023-11-19T05:04:59;48.42;;;7.47;;
20908;SDS011;10614;53.198;6.570;2023-11-19T05:07:03;53.13;;;8.82;;
20908;SDS011;10614;53.198;6.570;2023-11-19T05:09:05;61.83;;;8.82;;
20908;SDS011;10614;53.198;6.570;2023-11-19T05:11:08;48.35;;;7.70;;
20908;SDS011;10614;53.198;6.570;2023-11-19T05:13:12;53.40;;;7.88;;
20908;SDS011;10614;53.198;6.570;2023-11-19T05:15:16;48.25;;;7.70;;
20908;SDS011;10614;53.198;6.570;2023-11-19T05:23:52;54.30;;;7.97;;
20908;SDS011;10614;53.198;6.570;2023-11-19T05:30:42;50.85;;;7.50;;
20908;SDS011;10614;53.198;6.570;2023-11-19T05:32:47;49.42;;;6.95;;
20908;SDS011;10614;53.198;6.570;2023-11-19T05:37:38;41.75;;;6.88;;
20908;SDS011;10614;53.198;6.570;2023-11-19T05:51:06;47.30;;;7.72;;
20908;SDS011;10614;53.198;6.570;2023-11-19T05:53:13;48.25;;;8.27;;
20908;SDS011;10614;53.198;6.570;2023-11-19T05:55:15;57.47;;;8.57;;
20908;SDS011;10614;53.198;6.570;2023-11-19T05:57:17;50.72;;;8.02;;
20908;SDS011;10614;53.198;6.570;2023-11-19T05:59:23;55.95;;;8.27;;
20908;SDS011;10614;53.198;6.570;2023-11-19T06:01:27;47.67;;;7.72;;
20908;SDS011;10614;53.198;6.570;2023-11-19T06:03:29;48.83;;;6.80;;
20908;SDS011;10614;53.198;6.570;2023-11-19T06:05:31;49.05;;;8.93;;
20908;SDS011;10614;53.198;6.570;2023-11-19T06:07:36;54.45;;;7.50;;
20908;SDS011;10614;53.198;6.570;2023-11-19T06:09:39;54.78;;;7.97;;
20908;SDS011;10614;53.198;6.570;2023-11-19T06:11:41;59.95;;;7.78;;
20908;SDS011;10614;53.198;6.570;2023-11-19T06:13:44;55.00;;;7.60;;
20908;SDS011;10614;53.198;6.570;2023-11-19T06:15:48;49.97;;;8.10;;
20908;SDS011;10614;53.198;6.570;2023-11-19T06:18:04;64.43;;;8.43;;
20908;SDS011;10614;53.198;6.570;2023-11-19T06:20:08;47.28;;;7.00;;
20908;SDS011;10614;53.198;6.570;2023-11-19T11:01:20;34.83;;;6.18;;
20908;SDS011;10614;53.198;6.570;2023-11-19T11:03:28;36.83;;;6.68;;
20908;SDS011;10614;53.198;6.570;2023-11-19T12:20:34;37.25;;;5.80;;
20908;SDS011;10614;53.198;6.570;2023-11-19T12:22:37;42.38;;;7.10;;
20908;SDS011;10614;53.198;6.570;2023-11-19T12:37:43;34.78;;;6.47;;
20908;SDS011;10614;53.198;6.570;2023-11-19T12:39:47;39.50;;;6.93;;
20908;SDS011;10614;53.198;6.570;2023-11-19T12:41:52;32.95;;;5.32;;
20908;SDS011;10614;53.198;6.570;2023-11-19T12:43:54;42.70;;;6.40;;
20908;SDS011;10614;53.198;6.570;2023-11-19T12:48:20;30.35;;;5.40;;
20908;SDS011;10614;53.198;6.570;2023-11-19T12:52:37;35.72;;;6.05;;
20908;SDS011;10614;53.198;6.570;2023-11-19T12:54:42;29.75;;;5.68;;
20908;SDS011;10614;53.198;6.570;2023-11-19T12:56:51;36.47;;;5.75;;
20908;SDS011;10614;53.198;6.570;2023-11-19T12:58:53;39.08;;;5.47;;
20908;SDS011;10614;53.198;6.570;2023-11-19T13:00:59;35.88;;;5.35;;
20908;SDS011;10614;53.198;6.570;2023-11-19T13:03:00;32.60;;;5.35;;
20908;SDS011;10614;53.198;6.570;2023-11-19T13:07:22;30.33;;;4.90;;
20908;SDS011;10614;53.198;6.570;2023-11-19T13:09:25;41.03;;;6.70;;
20908;SDS011;10614;53.198;6.570;2023-11-19T13:11:32;36.15;;;6.18;;
20908;SDS011;10614;53.198;6.570;2023-11-19T13:13:54;33.65;;;5.53;;
20908;SDS011;10614;53.198;6.570;2023-11-19T13:16:01;34.45;;;6.10;;
20908;SDS011;10614;53.198;6.570;2023-11-19T13:18:05;30.00;;;5.65;;
20908;SDS011;10614;53.198;6.570;2023-11-19T13:20:08;28.90;;;5.63;;
20908;SDS011;10614;53.198;6.570;2023-11-19T13:22:11;38.45;;;6.10;;
20908;SDS011;10614;53.198;6.570;2023-11-19T13:24:13;34.35;;;6.13;;
20908;SDS011;10614;53.198;6.570;2023-11-19T13:26:15;27.77;;;5.43;;
20908;SDS011;10614;53.198;6.570;2023-11-19T13:28:18;32.47;;;4.47;;
20908;SDS011;10614;53.198;6.570;2023-11-19T13:30:20;36.33;;;5.00;;
20908;SDS011;10614;53.198;6.570;2023-11-19T13:34:39;30.50;;;5.20;;
20908;SDS011;10614;53.198;6.570;2023-11-19T13:37:18;30.65;;;5.28;;
20908;SDS011;10614;53.198;6.570;2023-11-19T14:33:29;35.75;;;5.45;;
20908;SDS011;10614;53.198;6.570;2023-11-19T14:35:32;33.13;;;4.60;;
20908;SDS011;10614;53.198;6.570;2023-11-19T14:39:45;26.55;;;5.63;;
20908;SDS011;10614;53.198;6.570;2023-11-19T14:59:14;33.83;;;5.80;;
20908;SDS011;10614;53.198;6.570;2023-11-19T15:01:20;39.20;;;5.85;;
20908;SDS011;10614;53.198;6.570;2023-11-19T15:03:21;35.00;;;5.43;;
20908;SDS011;10614;53.198;6.570;2023-11-19T15:05:23;43.72;;;6.00;;
20908;SDS011;10614;53.198;6.570;2023-11-19T15:07:31;33.75;;;5.72;;
20908;SDS011;10614;53.198;6.570;2023-11-19T15:09:33;35.50;;;5.78;;
20908;SDS011;10614;53.198;6.570;2023-11-19T15:11:36;32.28;;;4.90;;
20908;SDS011;10614;53.198;6.570;2023-11-19T15:13:38;38.97;;;7.70;;
20908;SDS011;10614;53.198;6.570;2023-11-19T15:15:44;34.40;;;5.35;;
20908;SDS011;10614;53.198;6.570;2023-11-19T15:17:46;42.95;;;5.60;;
20908;SDS011;10614;53.198;6.570;2023-11-19T15:19:48;36.40;;;6.15;;
20908;SDS011;10614;53.198;6.570;2023-11-19T15:21:50;36.33;;;5.07;;
20908;SDS011;10614;53.198;6.570;2023-11-19T15:23:55;31.33;;;4.80;;
20908;SDS011;10614;53.198;6.570;2023-11-19T15:25:56;33.70;;;5.53;;
20908;SDS011;10614;53.198;6.570;2023-11-19T15:27:58;36.85;;;6.40;;
20908;SDS011;10614;53.198;6.570;2023-11-19T15:30:05;32.88;;;4.78;;
20908;SDS011;10614;53.198;6.570;2023-11-19T15:32:11;30.65;;;5.70;;
20908;SDS011;10614;53.198;6.570;2023-11-19T15:34:13;32.67;;;4.47;;
20908;SDS011;10614;53.198;6.570;2023-11-19T15:36:15;29.77;;;5.10;;
20908;SDS011;10614;53.198;6.570;2023-11-19T15:38:17;28.50;;;4.90;;
20908;SDS011;10614;53.198;6.570;2023-11-19T15:40:19;31.85;;;5.90;;
20908;SDS011;10614;53.198;6.570;2023-11-19T15:42:21;31.90;;;4.68;;
20908;SDS011;10614;53.198;6.570;2023-11-19T15:44:23;33.08;;;4.72;;
20908;SDS011;10614;53.198;6.570;2023-11-19T15:46:25;27.63;;;4.43;;
20908;SDS011;10614;53.198;6.570;2023-11-19T15:48:28;33.00;;;5.03;;
20908;SDS011;10614;53.198;6.570;2023-11-19T15:50:30;30.92;;;5.13;;
20908;SDS011;10614;53.198;6.570;2023-11-19T15:52:33;25.85;;;4.88;;
20908;SDS011;10614;53.198;6.570;2023-11-19T15:54:35;26.35;;;5.03;;
20908;SDS011;10614;53.198;6.570;2023-11-19T15:56:37;30.42;;;4.65;;
20908;SDS011;10614;53.198;6.570;2023-11-19T15:58:39;35.97;;;4.32;;
20908;SDS011;10614;53.198;6.570;2023-11-19T16:00:40;26.20;;;5.07;;
20908;SDS011;10614;53.198;6.570;2023-11-19T16:22:19;34.92;;;5.18;;
20908;SDS011;10614;53.198;6.570;2023-11-19T16:24:21;24.40;;;4.27;;
20908;SDS011;10614;53.198;6.570;2023-11-19T16:26:26;33.80;;;6.22;;
20908;SDS011;10614;53.198;6.570;2023-11-19T16:28:29;22.73;;;4.30;;
20908;SDS011;10614;53.198;6.570;2023-11-19T16:30:30;41.90;;;6.47;;
20908;SDS011;10614;53.198;6.570;2023-11-19T16:32:32;36.67;;;4.65;;
20908;SDS011;10614;53.198;6.570;2023-11-19T16:34:37;25.50;;;4.57;;
20908;SDS011;10614;53.198;6.570;2023-11-19T16:36:42;37.67;;;4.95;;
20908;SDS011;10614;53.198;6.570;2023-11-19T16:38:46;37.08;;;5.10;;
20908;SDS011;10614;53.198;6.570;2023-11-19T16:40:48;29.40;;;4.35;;
20908;SDS011;10614;53.198;6.570;2023-11-19T16:42:51;31.13;;;4.70;;
20908;SDS011;10614;53.198;6.570;2023-11-19T16:44:57;39.65;;;5.63;;
20908;SDS011;10614;53.198;6.570;2023-11-19T16:49:03;36.42;;;5.57;;
20908;SDS011;10614;53.198;6.570;2023-11-19T16:51:08;42.67;;;7.13;;
20908;SDS011;10614;53.198;6.570;2023-11-19T16:53:14;40.72;;;5.60;;
20908;SDS011;10614;53.198;6.570;2023-11-19T16:55:18;34.42;;;4.38;;
20908;SDS011;10614;53.198;6.570;2023-11-19T16:57:20;41.00;;;5.40;;
20908;SDS011;10614;53.198;6.570;2023-11-19T16:59:22;30.95;;;5.53;;
20908;SDS011;10614;53.198;6.570;2023-11-19T17:01:24;37.33;;;5.05;;
20908;SDS011;10614;53.198;6.570;2023-11-19T17:03:26;34.65;;;5.90;;
20908;SDS011;10614;53.198;6.570;2023-11-19T17:05:28;34.20;;;5.15;;
20908;SDS011;10614;53.198;6.570;2023-11-19T17:07:30;37.58;;;5.65;;
20908;SDS011;10614;53.198;6.570;2023-11-19T17:09:37;38.10;;;5.60;;
20908;SDS011;10614;53.198;6.570;2023-11-19T17:11:43;29.73;;;4.68;;
20908;SDS011;10614;53.198;6.570;2023-11-19T17:13:47;31.23;;;5.60;;
20908;SDS011;10614;53.198;6.570;2023-11-19T17:15:49;34.63;;;5.20;;
20908;SDS011;10614;53.198;6.570;2023-11-19T17:17:54;29.05;;;4.32;;
20908;SDS011;10614;53.198;6.570;2023-11-19T17:21:57;26.30;;;5.03;;
20908;SDS011;10614;53.198;6.570;2023-11-19T17:23:59;33.28;;;5.13;;
20908;SDS011;10614;53.198;6.570;2023-11-19T17:26:02;29.70;;;5.45;;
20908;SDS011;10614;53.198;6.570;2023-11-19T17:28:07;28.73;;;5.60;;
20908;SDS011;10614;53.198;6.570;2023-11-19T17:30:09;30.45;;;5.28;;
20908;SDS011;10614;53.198;6.570;2023-11-19T17:32:13;27.27;;;4.50;;
20908;SDS011;10614;53.198;6.570;2023-11-19T17:34:14;28.88;;;4.95;;
20908;SDS011;10614;53.198;6.570;2023-11-19T17:36:18;24.98;;;4.53;;
20908;SDS011;10614;53.198;6.570;2023-11-19T17:38:20;27.90;;;5.30;;
20908;SDS011;10614;53.198;6.570;2023-11-19T17:40:35;23.30;;;4.63;;
20908;SDS011;10614;53.198;6.570;2023-11-19T17:42:42;30.40;;;4.50;;
20908;SDS011;10614;53.198;6.570;2023-11-19T17:44:46;26.55;;;4.70;;
20908;SDS011;10614;53.198;6.570;2023-11-19T17:46:47;25.83;;;4.60;;
20908;SDS011;10614;53.198;6.570;2023-11-19T17:48:49;27.73;;;5.03;;
20908;SDS011;10614;53.198;6.570;2023-11-19T17:50:52;31.67;;;5.50;;
20908;SDS011;10614;53.198;6.570;2023-11-19T17:52:55;35.08;;;6.15;;
20908;SDS011;10614;53.198;6.570;2023-11-19T17:54:58;32.22;;;4.90;;
20908;SDS011;10614;53.198;6.570;2023-11-19T17:56:59;28.50;;;5.32;;
20908;SDS011;10614;53.198;6.570;2023-11-19T17:59:03;29.33;;;6.05;;
20908;SDS011;10614;53.198;6.570;2023-11-19T18:01:06;35.53;;;6.20;;
20908;SDS011;10614;53.198;6.570;2023-11-19T18:03:07;35.65;;;6.07;;
20908;SDS011;10614;53.198;6.570;2023-11-19T18:05:11;33.13;;;7.43;;
20908;SDS011;10614;53.198;6.570;2023-11-19T18:07:12;30.83;;;6.22;;
20908;SDS011;10614;53.198;6.570;2023-11-19T18:09:16;32.50;;;6.38;;
20908;SDS011;10614;53.198;6.570;2023-11-19T18:11:19;31.63;;;5.93;;
20908;SDS011;10614;53.198;6.570;2023-11-19T18:13:22;38.38;;;7.05;;
20908;SDS011;10614;53.198;6.570;2023-11-19T18:15:25;41.35;;;7.18;;
20908;SDS011;10614;53.198;6.570;2023-11-19T18:17:28;35.40;;;6.55;;
20908;SDS011;10614;53.198;6.570;2023-11-19T18:19:31;43.50;;;7.68;;
20908;SDS011;10614;53.198;6.570;2023-11-19T18:45:27;34.08;;;6.30;;
20908;SDS011;10614;53.198;6.570;2023-11-19T18:47:31;38.05;;;6.28;;
20908;SDS011;10614;53.198;6.570;2023-11-19T18:49:37;40.35;;;5.80;;
20908;SDS011;10614;53.198;6.570;2023-11-19T18:51:39;29.90;;;5.90;;
20908;SDS011;10614;53.198;6.570;2023-11-19T18:53:49;39.88;;;7.43;;
20908;SDS011;10614;53.198;6.570;2023-11-19T18:56:05;40.30;;;6.78;;
20908;SDS011;10614;53.198;6.570;2023-11-19T19:01:02;40.60;;;6.93;;
20908;SDS011;10614;53.198;6.570;2023-11-19T19:03:18;42.95;;;5.95;;
20908;SDS011;10614;53.198;6.570;2023-11-19T19:05:23;33.30;;;5.82;;
20908;SDS011;10614;53.198;6.570;2023-11-19T19:07:39;31.63;;;5.78;;
20908;SDS011;10614;53.198;6.570;2023-11-19T19:09:43;38.63;;;6.13;;
20908;SDS011;10614;53.198;6.570;2023-11-19T19:11:50;43.85;;;6.47;;
20908;SDS011;10614;53.198;6.570;2023-11-19T19:13:55;26.83;;;5.50;;
20908;SDS011;10614;53.198;6.570;2023-11-19T19:16:19;39.65;;;6.03;;
20908;SDS011;10614;53.198;6.570;2023-11-19T19:18:22;30.13;;;5.78;;
20908;SDS011;10614;53.198;6.570;2023-11-19T19:20:25;34.53;;;5.70;;
20908;SDS011;10614;53.198;6.570;2023-11-19T19:22:26;29.88;;;5.57;;
20908;SDS011;10614;53.198;6.570;2023-11-19T19:24:29;32.90;;;5.63;;
20908;SDS011;10614;53.198;6.570;2023-11-19T19:26:32;31.60;;;5.28;;
20908;SDS011;10614;53.198;6.570;2023-11-19T19:28:34;47.63;;;12.18;;
20908;SDS011;10614;53.198;6.570;2023-11-19T19:30:38;30.02;;;7.55;;
20908;SDS011;10614;53.198;6.570;2023-11-19T20:47:20;22.42;;;5.35;;
20908;SDS011;10614;53.198;6.570;2023-11-19T20:51:24;16.98;;;4.45;;
20908;SDS011;10614;53.198;6.570;2023-11-19T20:53:26;18.25;;;5.13;;
20908;SDS011;10614;53.198;6.570;2023-11-19T20:55:28;24.77;;;5.22;;
20908;SDS011;10614;53.198;6.570;2023-11-19T20:57:29;17.63;;;4.32;;
20908;SDS011;10614;53.198;6.570;2023-11-19T20:59:31;16.52;;;3.78;;
20908;SDS011;10614;53.198;6.570;2023-11-19T21:01:33;12.93;;;3.92;;
20908;SDS011;10614;53.198;6.570;2023-11-19T21:03:36;14.30;;;3.85;;
20908;SDS011;10614;53.198;6.570;2023-11-19T21:05:37;15.35;;;4.13;;
20908;SDS011;10614;53.198;6.570;2023-11-19T21:07:40;12.00;;;2.95;;
20908;SDS011;10614;53.198;6.570;2023-11-19T21:09:42;10.32;;;3.25;;
20908;SDS011;10614;53.198;6.570;2023-11-19T21:11:43;9.50;;;2.70;;
20908;SDS011;10614;53.198;6.570;2023-11-19T21:13:45;13.05;;;2.63;;
20908;SDS011;10614;53.198;6.570;2023-11-19T21:15:48;11.02;;;2.20;;
20908;SDS011;10614;53.198;6.570;2023-11-19T21:17:50;11.05;;;2.55;;
20908;SDS011;10614;53.198;6.570;2023-11-19T21:19:53;13.95;;;3.05;;
20908;SDS011;10614;53.198;6.570;2023-11-19T21:21:55;11.52;;;3.00;;
20908;SDS011;10614;53.198;6.570;2023-11-19T21:23:57;12.43;;;3.42;;
20908;SDS011;10614;53.198;6.570;2023-11-19T21:25:59;14.77;;;3.30;;
20908;SDS011;10614;53.198;6.570;2023-11-19T21:28:01;16.80;;;3.85;;
20908;SDS011;10614;53.198;6.570;2023-11-19T21:30:03;18.45;;;3.55;;
20908;SDS011;10614;53.198;6.570;2023-11-19T21:32:06;21.98;;;4.55;;
20908;SDS011;10614;53.198;6.570;2023-11-19T21:34:09;17.73;;;3.70;;
20908;SDS011;10614;53.198;6.570;2023-11-19T21:36:12;10.63;;;3.80;;
20908;SDS011;10614;53.198;6.570;2023-11-19T21:38:14;18.02;;;4.78;;
20908;SDS011;10614;53.198;6.570;2023-11-19T21:40:18;13.75;;;3.70;;
20908;SDS011;10614;53.198;6.570;2023-11-19T21:42:20;11.07;;;2.70;;
20908;SDS011;10614;53.198;6.570;2023-11-19T21:44:36;12.05;;;2.25;;
20908;SDS011;10614;53.198;6.570;2023-11-19T21:46:51;12.32;;;2.55;;
20908;SDS011;10614;53.198;6.570;2023-11-19T21:49:07;7.93;;;1.80;;
